Time;durP1;ratioP1;P1;durP2;ratioP2;P2;SDS_P1;SDS_P2;PMS_P1;PMS_P2;Temp;Humidity;BMP_temperature;BMP_pressure;BME280_temperature;BME280_humidity;BME280_pressure;Samples;Min_cycle;Max_cycle;Signal;HPM_P1;HPM_P2
2024/01/10 00:02:09;;;;;;;;;;;;;;;-2.02;66.18;96204.81;5074615;28;946;-58
2024/01/10 00:04:43;;;;;;;;;;;;;;;-2.13;67.42;96204.38;5073880;28;911;-58
2024/01/10 00:07:18;;;;;;;;;;;;;;;-2.01;66.59;96210.91;5074441;28;1974;-58
2024/01/10 00:09:52;;;;;;;;;;;;;;;-1.95;66.35;96210.69;5074566;28;931;-58
2024/01/10 00:12:27;;;;;;;;;;;;;;;-2.08;67.14;96210.28;5074416;28;934;-58
2024/01/10 00:15:02;;;;;;;;;;;;;;;-2.11;66.36;96215.66;5074349;28;973;-58
2024/01/10 00:17:36;;;;;;;;;;;;;;;-2.06;66.90;96212.88;5074107;28;978;-58
2024/01/10 00:20:10;;;;;;;;;;;;;;;-2.11;66.94;96214.78;5074148;28;1010;-58
2024/01/10 00:22:44;;;;;;;;;;;;;;;-2.09;66.85;96218.22;5074316;28;1032;-58
2024/01/10 00:25:18;;;;;;;;;;;;;;;-2.10;66.69;96225.22;5074046;28;1028;-58
2024/01/10 00:27:51;;;;;;;;;;;;;;;-2.13;67.58;96217.47;5074179;28;1910;-58
2024/01/10 00:30:25;;;;;;;;;;;;;;;-2.10;66.48;96227.00;5074049;28;1001;-58
2024/01/10 00:33:00;;;;;;;;;;;;;;;-2.21;67.44;96225.63;5074112;28;1001;-58
2024/01/10 00:35:34;;;;;;;;;;;;;;;-2.19;67.87;96223.78;5074062;28;940;-58
2024/01/10 00:38:09;;;;;;;;;;;;;;;-2.14;67.90;96213.16;5057462;28;931;-58
2024/01/10 00:40:43;;;;;;;;;;;;;;;-2.04;66.98;96222.38;5073701;28;944;-58
2024/01/10 00:43:17;;;;;;;;;;;;;;;-2.05;66.62;96218.06;5073311;28;1149;-58
2024/01/10 00:45:51;;;;;;;;;;;;;;;-2.05;66.95;96219.81;5073588;28;973;-58
2024/01/10 00:48:26;;;;;;;;;;;;;;;-1.93;67.02;96218.50;5073706;28;1906;-58
2024/01/10 00:51:00;;;;;;;;;;;;;;;-1.88;66.37;96219.16;5073613;28;1018;-58
2024/01/10 00:53:34;;;;;;;;;;;;;;;-1.98;66.51;96219.50;5073256;28;1209;-58
2024/01/10 00:56:09;;;;;;;;;;;;;;;-2.05;66.90;96212.81;5073679;28;954;-58
2024/01/10 00:58:43;;;;;;;;;;;;;;;-2.05;67.87;96215.44;5057109;28;918;-58
2024/01/10 01:01:18;;;;;;;;;;;;;;;-2.04;67.33;96213.66;5073453;28;915;-58
2024/01/10 01:04:03;;;;;;;;;;;;;;;-2.03;66.34;96216.22;5073262;28;1692;-58
2024/01/10 01:06:37;;;;;;;;;;;;;;;-2.11;66.86;96222.66;5073222;28;1945;-58
2024/01/10 01:09:15;;;;;;;;;;;;;;;-2.12;66.96;96218.34;5073438;28;966;-58
2024/01/10 01:11:49;;;;;;;;;;;;;;;-2.20;67.22;96216.88;5073385;28;928;-58
2024/01/10 01:14:23;;;;;;;;;;;;;;;-2.10;67.27;96212.13;5056612;28;926;-58
2024/01/10 01:16:58;;;;;;;;;;;;;;;-2.13;67.88;96214.84;5072230;28;1012;-58
2024/01/10 01:19:31;;;;;;;;;;;;;;;-2.02;66.70;96215.28;5073339;28;926;-58
2024/01/10 01:22:05;;;;;;;;;;;;;;;-1.96;66.29;96214.22;5073504;28;1020;-58
2024/01/10 01:24:39;;;;;;;;;;;;;;;-2.11;67.27;96212.19;5073249;28;902;-58
2024/01/10 01:27:14;;;;;;;;;;;;;;;-2.18;67.32;96215.03;5073243;28;1981;-58
2024/01/10 01:29:48;;;;;;;;;;;;;;;-1.98;67.20;96218.66;5073063;28;977;-58
2024/01/10 01:32:19;;;;;;;;;;;;;;;-1.93;67.33;96211.47;5073234;28;930;-58
2024/01/10 01:34:54;;;;;;;;;;;;;;;-1.86;66.98;96212.97;5073511;28;1016;-58
2024/01/10 01:37:28;;;;;;;;;;;;;;;-1.84;66.80;96216.38;5072841;28;940;-58
2024/01/10 01:40:02;;;;;;;;;;;;;;;-1.80;66.85;96215.34;5072996;28;944;-58
2024/01/10 01:42:37;;;;;;;;;;;;;;;-1.86;66.71;96215.59;5072729;28;1140;-58
2024/01/10 01:45:11;;;;;;;;;;;;;;;-1.84;67.14;96212.88;5072983;28;934;-58
2024/01/10 01:47:44;;;;;;;;;;;;;;;-1.80;66.82;96214.50;5072862;28;1914;-58
2024/01/10 01:50:18;;;;;;;;;;;;;;;-1.81;66.51;96216.22;5073070;28;989;-58
2024/01/10 01:52:53;;;;;;;;;;;;;;;-1.84;66.87;96211.13;5073088;28;1202;-58
2024/01/10 01:55:27;;;;;;;;;;;;;;;-1.73;66.48;96210.69;5072753;28;1907;-58
2024/01/10 01:58:02;;;;;;;;;;;;;;;-1.78;67.37;96210.88;5072896;28;1072;-60
2024/01/10 02:00:37;;;;;;;;;;;;;;;-1.71;67.93;96200.13;5072647;28;958;-61
2024/01/10 02:03:11;;;;;;;;;;;;;;;-1.72;68.47;96195.84;5072997;28;946;-61
2024/01/10 02:05:45;;;;;;;;;;;;;;;-1.61;67.17;96199.72;5056071;28;870;-61
2024/01/10 02:08:20;;;;;;;;;;;;;;;-1.69;66.83;96187.81;5072845;28;1914;-61
2024/01/10 02:10:54;;;;;;;;;;;;;;;-1.69;67.92;96188.69;5072891;28;988;-61
2024/01/10 02:13:29;;;;;;;;;;;;;;;-1.77;67.12;96180.25;5072824;28;930;-61
2024/01/10 02:16:00;;;;;;;;;;;;;;;-1.75;66.18;96178.44;5072875;28;1020;-61
2024/01/10 02:18:35;;;;;;;;;;;;;;;-1.80;66.08;96181.25;5072553;28;933;-61
2024/01/10 02:21:09;;;;;;;;;;;;;;;-1.71;66.90;96173.91;5072905;28;936;-61
2024/01/10 02:23:43;;;;;;;;;;;;;;;-1.91;67.22;96180.81;5072851;28;934;-61
2024/01/10 02:26:18;;;;;;;;;;;;;;;-1.87;68.06;96176.31;5072561;28;1910;-61
2024/01/10 02:28:52;;;;;;;;;;;;;;;-1.72;67.31;96167.81;5074326;28;1006;-61
2024/01/10 02:31:27;;;;;;;;;;;;;;;-1.74;67.35;96166.19;5076050;28;992;-61
2024/01/10 02:34:01;;;;;;;;;;;;;;;-1.88;67.80;96164.94;5076089;28;913;-61
2024/01/10 02:36:36;;;;;;;;;;;;;;;-1.80;67.85;96157.66;5059591;28;941;-61
2024/01/10 02:39:10;;;;;;;;;;;;;;;-1.66;67.59;96162.31;5075993;28;949;-61
2024/01/10 02:41:43;;;;;;;;;;;;;;;-1.58;68.07;96162.00;5059434;28;1225;-61
2024/01/10 02:44:19;;;;;;;;;;;;;;;-1.63;66.86;96169.22;5075676;28;1104;-61
2024/01/10 02:46:53;;;;;;;;;;;;;;;-1.66;66.84;96164.09;5076107;28;1914;-61
2024/01/10 02:49:27;;;;;;;;;;;;;;;-1.77;67.32;96165.38;5076081;28;881;-61
2024/01/10 02:52:02;;;;;;;;;;;;;;;-1.71;66.73;96166.06;5075937;28;1210;-61
2024/01/10 02:54:36;;;;;;;;;;;;;;;-1.74;67.21;96167.03;5075838;28;969;-61
2024/01/10 02:57:10;;;;;;;;;;;;;;;-1.71;66.28;96168.69;5075687;28;1019;-61
2024/01/10 02:59:44;;;;;;;;;;;;;;;-1.73;67.66;96168.72;5076017;28;973;-61
2024/01/10 03:02:18;;;;;;;;;;;;;;;-1.71;67.37;96166.06;5075885;28;961;-61
2024/01/10 03:04:52;;;;;;;;;;;;;;;-1.77;68.13;96169.78;5059012;28;985;-61
2024/01/10 03:07:27;;;;;;;;;;;;;;;-1.78;67.21;96168.94;5075564;28;1914;-61
2024/01/10 03:10:01;;;;;;;;;;;;;;;-1.79;67.33;96169.81;5075836;28;961;-61
2024/01/10 03:12:36;;;;;;;;;;;;;;;-1.79;67.69;96167.22;5075550;28;1471;-61
2024/01/10 03:15:11;;;;;;;;;;;;;;;-1.79;68.31;96172.44;5075621;28;985;-61
2024/01/10 03:17:44;;;;;;;;;;;;;;;-1.68;67.64;96177.28;5075627;28;1001;-61
2024/01/10 03:20:18;;;;;;;;;;;;;;;-1.73;67.39;96181.84;5075489;28;1017;-61
2024/01/10 03:22:52;;;;;;;;;;;;;;;-1.70;67.32;96178.25;5075460;28;975;-61
2024/01/10 03:25:27;;;;;;;;;;;;;;;-1.71;68.15;96173.91;5075224;28;924;-61
2024/01/10 03:28:01;;;;;;;;;;;;;;;-1.62;67.16;96166.53;5075410;28;1909;-61
2024/01/10 03:30:36;;;;;;;;;;;;;;;-1.52;67.34;96164.38;5075146;28;918;-61
2024/01/10 03:33:10;;;;;;;;;;;;;;;-1.59;67.99;96165.56;5075266;28;1088;-61
2024/01/10 03:35:45;;;;;;;;;;;;;;;-1.64;68.37;96162.28;5058523;28;1010;-61
2024/01/10 03:38:19;;;;;;;;;;;;;;;-1.56;68.48;96165.44;5058603;28;1016;-61
2024/01/10 03:40:53;;;;;;;;;;;;;;;-1.54;67.90;96168.00;5073780;28;898;-58
2024/01/10 03:43:27;;;;;;;;;;;;;;;-1.70;68.74;96163.38;5074618;28;1145;-59
2024/01/10 03:46:02;;;;;;;;;;;;;;;-1.64;68.33;96165.75;5074970;28;941;-58
2024/01/10 03:48:37;;;;;;;;;;;;;;;-1.61;68.77;96168.25;5074741;28;1910;-59
2024/01/10 03:51:11;;;;;;;;;;;;;;;-1.41;68.22;96162.16;5074593;28;969;-59
2024/01/10 03:53:44;;;;;;;;;;;;;;;-1.38;67.43;96164.69;5074846;28;1087;-59
2024/01/10 03:56:19;;;;;;;;;;;;;;;-1.47;67.09;96174.69;5058204;28;903;-58
2024/01/10 03:58:54;;;;;;;;;;;;;;;-1.47;68.18;96174.69;5074857;28;945;-59
2024/01/10 04:01:28;;;;;;;;;;;;;;;-1.62;69.97;96168.31;5074648;28;921;-59
2024/01/10 04:04:02;;;;;;;;;;;;;;;-1.53;68.32;96177.59;5074401;28;971;-58
2024/01/10 04:06:37;;;;;;;;;;;;;;;-1.56;68.23;96181.16;5074233;28;1905;-58
2024/01/10 04:09:12;;;;;;;;;;;;;;;-1.56;67.78;96186.41;5074325;28;926;-58
2024/01/10 04:11:45;;;;;;;;;;;;;;;-1.50;68.91;96193.19;5074370;28;935;-58
2024/01/10 04:14:19;;;;;;;;;;;;;;;-1.50;68.17;96183.56;5074071;28;1039;-59
2024/01/10 04:16:52;;;;;;;;;;;;;;;-1.42;68.60;96180.63;5074248;28;1354;-59
2024/01/10 04:19:27;;;;;;;;;;;;;;;-1.36;70.01;96183.00;5074031;28;969;-58
2024/01/10 04:22:01;;;;;;;;;;;;;;;-1.39;69.16;96178.69;5074017;28;965;-59
2024/01/10 04:24:35;;;;;;;;;;;;;;;-1.42;69.11;96172.75;5074281;28;984;-58
2024/01/10 04:27:10;;;;;;;;;;;;;;;-1.42;69.20;96175.38;5073902;28;2187;-58
2024/01/10 04:29:43;;;;;;;;;;;;;;;-1.42;69.20;96180.63;5073737;28;1551;-58
2024/01/10 04:32:17;;;;;;;;;;;;;;;-1.48;69.44;96178.22;5073744;28;1124;-58
2024/01/10 04:34:51;;;;;;;;;;;;;;;-1.53;70.05;96175.81;5073306;28;988;-58
2024/01/10 04:37:26;;;;;;;;;;;;;;;-1.42;69.85;96186.72;5073719;28;1487;-59
2024/01/10 04:39:57;;;;;;;;;;;;;;;-1.40;70.79;96187.50;5074010;28;1431;-59
2024/01/10 04:42:30;;;;;;;;;;;;;;;-1.38;71.03;96187.44;5073152;28;1634;-59
2024/01/10 04:45:02;;;;;;;;;;;;;;;-1.33;69.47;96189.88;5073857;28;1496;-58
2024/01/10 04:47:34;;;;;;;;;;;;;;;-1.41;70.62;96196.28;5073378;28;1914;-59
2024/01/10 04:50:07;;;;;;;;;;;;;;;-1.37;70.56;96191.75;5073663;28;1372;-58
2024/01/10 04:52:39;;;;;;;;;;;;;;;-1.35;70.11;96192.53;5073383;28;1410;-59
2024/01/10 04:55:13;;;;;;;;;;;;;;;-1.44;70.00;96167.56;5073652;28;1454;-59
2024/01/10 04:57:45;;;;;;;;;;;;;;;-1.25;69.46;96208.75;5073364;28;1574;-59
2024/01/10 05:00:17;;;;;;;;;;;;;;;-1.22;69.30;96208.66;5073450;28;1569;-58
2024/01/10 05:02:51;;;;;;;;;;;;;;;-1.29;69.33;96208.06;5073560;28;1548;-58
2024/01/10 05:05:25;;;;;;;;;;;;;;;-1.33;68.48;96206.47;5073337;28;1555;-62
2024/01/10 05:08:01;;;;;;;;;;;;;;;-1.32;68.69;96207.34;5073182;28;1997;-59
2024/01/10 05:10:32;;;;;;;;;;;;;;;-1.36;68.10;96209.22;5073040;28;1492;-58
2024/01/10 05:13:04;;;;;;;;;;;;;;;-1.42;68.89;96212.09;5073082;28;1635;-59
2024/01/10 05:15:36;;;;;;;;;;;;;;;-1.39;68.23;96214.59;5073289;28;1429;-59
2024/01/10 05:18:10;;;;;;;;;;;;;;;-1.42;68.46;96220.81;5073352;28;1441;-59
2024/01/10 05:20:42;;;;;;;;;;;;;;;-1.49;67.95;96231.63;5073457;28;1581;-59
2024/01/10 05:23:14;;;;;;;;;;;;;;;-1.38;67.69;96227.66;5073169;28;1443;-60
2024/01/10 05:25:49;;;;;;;;;;;;;;;-1.39;67.65;96223.31;5073426;28;938;-59
2024/01/10 05:28:23;;;;;;;;;;;;;;;-1.45;67.65;96227.97;5073050;28;1961;-59
2024/01/10 05:30:57;;;;;;;;;;;;;;;-1.34;67.32;96232.78;5056401;28;1782;-59
2024/01/10 05:33:32;;;;;;;;;;;;;;;-1.23;66.82;96235.81;5073296;28;1114;-59
2024/01/10 05:36:03;;;;;;;;;;;;;;;-1.21;66.88;96237.47;5073791;28;1475;-60
2024/01/10 05:38:37;;;;;;;;;;;;;;;-1.16;66.94;96237.25;5073186;28;1448;-60
2024/01/10 05:41:12;;;;;;;;;;;;;;;-1.32;67.83;96234.41;5073210;28;1016;-59
2024/01/10 05:43:43;;;;;;;;;;;;;;;-1.28;67.37;96237.78;5087663;28;1637;-60
2024/01/10 05:46:19;;;;;;;;;;;;;;;-1.33;67.52;96245.81;5073180;28;1002;-59
2024/01/10 05:48:51;;;;;;;;;;;;;;;-1.43;67.56;96236.63;5073181;28;1566;-59
2024/01/10 05:51:23;;;;;;;;;;;;;;;-1.38;66.95;96240.75;5073033;28;1539;-61
2024/01/10 05:53:55;;;;;;;;;;;;;;;-1.24;66.86;96234.94;5072604;28;1580;-59
2024/01/10 05:56:27;;;;;;;;;;;;;;;-1.22;66.89;96237.50;5072933;28;1475;-59
2024/01/10 05:59:01;;;;;;;;;;;;;;;-1.35;67.09;96234.53;5073025;28;1589;-60
2024/01/10 06:01:35;;;;;;;;;;;;;;;-1.36;67.54;96232.84;5072762;28;1495;-59
2024/01/10 06:04:09;;;;;;;;;;;;;;;-1.30;66.95;96250.94;5075186;28;932;-58
2024/01/10 06:06:42;;;;;;;;;;;;;;;-1.32;66.73;96249.31;5076799;28;2004;-61
2024/01/10 06:09:15;;;;;;;;;;;;;;;-1.36;67.08;96255.59;5076397;28;1657;-61
2024/01/10 06:11:47;;;;;;;;;;;;;;;-1.32;67.28;96254.56;5076577;28;1644;-61
2024/01/10 06:14:19;;;;;;;;;;;;;;;-1.18;65.52;96265.34;5076616;28;1514;-61
2024/01/10 06:16:51;;;;;;;;;;;;;;;-1.25;65.42;96270.00;5076667;28;1569;-61
2024/01/10 06:19:23;;;;;;;;;;;;;;;-1.31;65.07;96272.00;5076425;28;1457;-62
2024/01/10 06:21:55;;;;;;;;;;;;;;;-1.24;65.56;96276.94;5076421;28;1597;-62
2024/01/10 06:24:28;;;;;;;;;;;;;;;-1.23;65.34;96278.66;5076386;28;1606;-62
2024/01/10 06:27:00;;;;;;;;;;;;;;;-1.23;65.55;96277.81;5076062;28;1910;-61
2024/01/10 06:29:32;;;;;;;;;;;;;;;-1.19;66.09;96275.00;5076349;28;1508;-62
2024/01/10 06:32:06;;;;;;;;;;;;;;;-1.12;66.42;96278.22;5076356;28;1495;-62
2024/01/10 06:34:38;;;;;;;;;;;;;;;-1.20;64.68;96291.63;5076251;28;1561;-62
2024/01/10 06:37:10;;;;;;;;;;;;;;;-1.21;66.19;96282.06;5076258;28;1483;-61
2024/01/10 06:39:44;;;;;;;;;;;;;;;-1.23;66.87;96277.81;5076146;28;1472;-62
2024/01/10 06:42:16;;;;;;;;;;;;;;;-1.15;66.08;96280.97;5075886;28;1556;-62
2024/01/10 06:44:48;;;;;;;;;;;;;;;-1.20;66.41;96283.75;5076055;28;1629;-62
2024/01/10 06:47:21;;;;;;;;;;;;;;;-1.16;66.21;96286.28;5075826;28;1914;-61
2024/01/10 06:49:55;;;;;;;;;;;;;;;-0.99;66.24;96287.31;5076085;28;1467;-61
2024/01/10 06:52:27;;;;;;;;;;;;;;;-1.09;67.99;96283.34;5075780;28;1473;-62
2024/01/10 06:54:59;;;;;;;;;;;;;;;-0.90;66.85;96291.31;5075971;28;1490;-61
2024/01/10 06:57:31;;;;;;;;;;;;;;;-0.89;66.06;96298.28;5075760;28;1670;-61
2024/01/10 07:00:06;;;;;;;;;;;;;;;-0.93;66.78;96293.22;5075885;28;1662;-61
2024/01/10 07:02:41;;;;;;;;;;;;;;;-0.93;66.54;96295.84;5075799;28;954;-62
2024/01/10 07:05:13;;;;;;;;;;;;;;;-0.82;66.95;96299.72;5075710;28;1615;-61
2024/01/10 07:07:45;;;;;;;;;;;;;;;-0.81;67.25;96292.72;5075176;28;1993;-61
2024/01/10 07:10:18;;;;;;;;;;;;;;;-0.71;67.19;96301.91;5075560;28;1532;-60
2024/01/10 07:12:50;;;;;;;;;;;;;;;-0.75;66.80;96302.97;5075634;28;1591;-61
2024/01/10 07:15:22;;;;;;;;;;;;;;;-0.62;66.54;96312.03;5075369;28;1429;-59
2024/01/10 07:17:56;;;;;;;;;;;;;;;-0.68;65.93;96312.28;5075499;28;1442;-60
2024/01/10 07:20:28;;;;;;;;;;;;;;;-0.75;67.00;96315.25;5075497;28;1626;-60
2024/01/10 07:23:00;;;;;;;;;;;;;;;-0.73;68.22;96310.78;5075338;28;1489;-59
2024/01/10 07:25:33;;;;;;;;;;;;;;;-0.60;66.08;96318.06;5075355;28;1714;-59
2024/01/10 07:28:08;;;;;;;;;;;;;;;-0.58;67.18;96323.28;5075105;28;1973;-58
2024/01/10 07:30:40;;;;;;;;;;;;;;;-0.71;67.40;96320.28;5058059;28;1512;-60
2024/01/10 07:33:14;;;;;;;;;;;;;;;-0.67;68.05;96319.25;5058085;28;1558;-59
2024/01/10 07:35:46;;;;;;;;;;;;;;;-0.50;67.14;96336.94;5075213;28;1619;-60
2024/01/10 07:38:20;;;;;;;;;;;;;;;-0.50;66.77;96333.44;5074884;28;1043;-60
2024/01/10 07:40:54;;;;;;;;;;;;;;;-0.50;65.94;96341.34;5075046;28;1596;-60
2024/01/10 07:43:27;;;;;;;;;;;;;;;-0.35;65.95;96334.56;5074427;28;1382;-60
2024/01/10 07:46:01;;;;;;;;;;;;;;;-0.32;66.28;96332.69;5074989;28;1511;-60
2024/01/10 07:48:32;;;;;;;;;;;;;;;-0.16;65.79;96335.50;5074024;28;1913;-62
2024/01/10 07:51:07;;;;;;;;;;;;;;;-0.10;64.47;96348.34;5074502;28;948;-62
2024/01/10 07:53:41;;;;;;;;;;;;;;;-0.14;64.86;96338.91;5074373;28;1143;-62
2024/01/10 07:56:15;;;;;;;;;;;;;;;-0.24;65.18;96343.72;5074606;28;979;-62
2024/01/10 07:58:51;;;;;;;;;;;;;;;-0.20;64.80;96341.81;5074160;28;923;-62
2024/01/10 08:01:25;;;;;;;;;;;;;;;0.03;63.42;96346.06;5074697;28;920;-62
2024/01/10 08:04:00;;;;;;;;;;;;;;;0.18;63.22;96345.38;5074476;28;931;-62
2024/01/10 08:06:35;;;;;;;;;;;;;;;0.43;61.87;96352.16;5074183;28;1996;-62
2024/01/10 08:09:10;;;;;;;;;;;;;;;0.39;62.36;96348.81;5074367;28;964;-62
2024/01/10 08:11:45;;;;;;;;;;;;;;;0.27;62.80;96343.28;5074349;28;999;-61
2024/01/10 08:14:19;;;;;;;;;;;;;;;0.42;62.69;96350.47;5074450;28;906;-62
2024/01/10 08:16:54;;;;;;;;;;;;;;;0.35;61.78;96357.75;5074672;28;899;-62
2024/01/10 08:19:29;;;;;;;;;;;;;;;0.28;63.12;96343.16;5074245;28;916;-62
2024/01/10 08:22:01;;;;;;;;;;;;;;;0.48;62.51;96358.06;5074323;28;873;-62
2024/01/10 08:24:35;;;;;;;;;;;;;;;0.78;61.30;96353.16;5074070;28;1011;-61
2024/01/10 08:27:07;;;;;;;;;;;;;;;1.04;60.01;96355.47;5073533;28;1985;-61
2024/01/10 08:29:39;;;;;;;;;;;;;;;0.97;61.39;96355.78;5074033;28;1475;-61
2024/01/10 08:32:14;;;;;;;;;;;;;;;1.00;60.83;96361.81;5073655;28;1776;-61
2024/01/10 08:34:49;;;;;;;;;;;;;;;1.11;59.49;96360.38;5074188;28;897;-61
2024/01/10 08:37:23;;;;;;;;;;;;;;;1.01;59.97;96353.00;5073793;28;938;-61
2024/01/10 08:39:56;;;;;;;;;;;;;;;1.04;60.42;96353.69;5073942;28;1538;-61
2024/01/10 08:42:30;;;;;;;;;;;;;;;1.23;59.54;96352.81;5073638;28;1093;-61
2024/01/10 08:45:04;;;;;;;;;;;;;;;1.45;59.68;96349.97;5073949;28;930;-61
2024/01/10 08:47:39;;;;;;;;;;;;;;;1.49;58.95;96351.53;5073814;28;1979;-61
2024/01/10 08:50:13;;;;;;;;;;;;;;;1.66;57.64;96348.06;5073779;28;1013;-61
2024/01/10 08:52:47;;;;;;;;;;;;;;;1.63;57.09;96354.34;5073484;28;1151;-61
2024/01/10 08:55:21;;;;;;;;;;;;;;;1.67;57.79;96353.25;5073405;28;961;-61
2024/01/10 08:57:55;;;;;;;;;;;;;;;1.86;58.14;96349.66;5073685;28;1483;-61
2024/01/10 09:00:30;;;;;;;;;;;;;;;2.12;57.45;96346.53;5073490;28;886;-61
2024/01/10 09:03:04;;;;;;;;;;;;;;;2.02;58.01;96344.47;5073764;28;925;-61
2024/01/10 09:05:31;;;;;;;;;;;;;;;1.75;58.08;96342.31;5073550;28;991;-61
2024/01/10 09:07:57;;;;;;;;;;;;;;;1.83;58.75;96332.22;5073239;28;1910;-61
2024/01/10 09:10:23;;;;;;;;;;;;;;;1.89;58.46;96331.06;5073189;28;1084;-61
2024/01/10 09:12:49;;;;;;;;;;;;;;;1.89;58.08;96331.06;5073601;28;1044;-60
2024/01/10 09:15:15;;;;;;;;;;;;;;;1.83;57.89;96339.28;5073112;28;1016;-61
2024/01/10 09:17:42;;;;;;;;;;;;;;;1.84;57.99;96338.34;5073458;28;1042;-61
2024/01/10 09:20:08;;;;;;;;;;;;;;;1.91;58.38;96337.94;5073463;28;986;-60
2024/01/10 09:22:34;;;;;;;;;;;;;;;1.91;58.02;96340.59;5073372;28;938;-61
2024/01/10 09:25:03;;;;;;;;;;;;;;;2.03;57.67;96340.88;5073149;28;1096;-61
2024/01/10 09:27:30;;;;;;;;;;;;;;;2.10;57.27;96334.34;5072912;28;1910;-61
2024/01/10 09:29:56;;;;;;;;;;;;;;;2.05;57.71;96336.38;5073283;28;1003;-61
2024/01/10 09:32:22;;;;;;;;;;;;;;;1.99;57.33;96334.91;5073251;28;996;-60
2024/01/10 09:34:48;;;;;;;;;;;;;;;2.06;57.02;96332.81;5073363;28;1027;-60
2024/01/10 09:37:14;;;;;;;;;;;;;;;2.10;57.35;96332.56;5072968;28;1041;-61
2024/01/10 09:39:40;;;;;;;;;;;;;;;2.24;57.42;96336.25;5076551;28;1000;-60
2024/01/10 09:42:06;;;;;;;;;;;;;;;2.20;57.04;96327.69;5076936;28;1118;-61
2024/01/10 09:44:33;;;;;;;;;;;;;;;1.98;58.19;96319.19;5077225;28;1052;-58
2024/01/10 09:47:00;;;;;;;;;;;;;;;2.04;57.86;96326.78;5077263;28;1914;-59
2024/01/10 09:49:27;;;;;;;;;;;;;;;1.95;57.36;96323.69;5077235;28;1053;-59
2024/01/10 09:52:01;;;;;;;;;;;;;;;2.14;57.29;96326.22;5077178;28;1210;-58
2024/01/10 09:54:30;;;;;;;;;;;;;;;2.30;57.40;96328.03;5059306;28;1735;-59
2024/01/10 09:56:59;;;;;;;;;;;;;;;2.21;57.74;96329.38;5076924;28;1625;-59
2024/01/10 09:59:25;;;;;;;;;;;;;;;2.36;56.93;96318.94;5076849;28;1035;-59
2024/01/10 10:01:51;;;;;;;;;;;;;;;2.49;56.33;96315.56;5076830;28;1087;-59
2024/01/10 10:04:19;;;;;;;;;;;;;;;2.87;54.86;96323.16;5077034;28;1033;-59
2024/01/10 10:06:45;;;;;;;;;;;;;;;3.01;54.54;96317.09;5076681;28;1996;-59
2024/01/10 10:09:11;;;;;;;;;;;;;;;3.37;53.70;96318.56;5076666;28;1572;-59
2024/01/10 10:11:38;;;;;;;;;;;;;;;3.34;53.06;96318.78;5076969;28;1007;-59
2024/01/10 10:14:16;;;;;;;;;;;;;;;3.17;53.54;96317.09;5076873;28;1019;-59
2024/01/10 10:16:42;;;;;;;;;;;;;;;2.85;53.99;96319.75;5076623;28;1088;-59
2024/01/10 10:19:09;;;;;;;;;;;;;;;3.55;53.91;96319.31;5076743;28;978;-59
2024/01/10 10:21:35;;;;;;;;;;;;;;;4.26;51.22;96320.38;5076611;28;980;-59
2024/01/10 10:24:03;;;;;;;;;;;;;;;4.58;50.03;96323.69;5076547;28;1095;-59
2024/01/10 10:26:31;;;;;;;;;;;;;;;4.80;49.62;96320.56;5076537;28;1023;-58
2024/01/10 10:28:58;;;;;;;;;;;;;;;4.93;48.92;96317.09;5076305;28;1027;-59
2024/01/10 10:31:27;;;;;;;;;;;;;;;5.18;47.25;96305.78;5076168;28;1040;-59
2024/01/10 10:33:53;;;;;;;;;;;;;;;5.20;48.36;96306.56;5076341;28;977;-59
2024/01/10 10:36:20;;;;;;;;;;;;;;;5.68;47.38;96307.75;5076145;28;970;-59
2024/01/10 10:38:49;;;;;;;;;;;;;;;5.82;46.59;96303.31;5076134;28;1106;-59
2024/01/10 10:41:15;;;;;;;;;;;;;;;5.50;46.62;96303.66;5076010;28;1054;-58
2024/01/10 10:43:41;;;;;;;;;;;;;;;5.60;47.61;96294.16;5075989;28;1077;-58
2024/01/10 10:46:17;;;;;;;;;;;;;;;6.06;47.16;96295.53;5076289;28;1052;-58
2024/01/10 10:48:44;;;;;;;;;;;;;;;6.37;45.55;96296.88;5075919;28;1902;-59
2024/01/10 10:51:16;;;;;;;;;;;;;;;5.97;44.88;96296.97;5075898;28;1035;-58
2024/01/10 10:53:45;;;;;;;;;;;;;;;5.62;45.86;96286.09;5075991;28;1170;-58
2024/01/10 10:56:11;;;;;;;;;;;;;;;5.38;47.15;96280.59;5075823;28;1099;-58
2024/01/10 10:58:39;;;;;;;;;;;;;;;5.60;46.91;96272.94;5076120;28;979;-58
2024/01/10 11:01:06;;;;;;;;;;;;;;;6.03;46.46;96271.81;5076056;28;974;-58
2024/01/10 11:03:40;;;;;;;;;;;;;;;6.23;46.52;96270.44;5075618;28;1134;-59
2024/01/10 11:06:06;;;;;;;;;;;;;;;6.11;45.79;96276.59;5075651;28;1036;-58
2024/01/10 11:08:42;;;;;;;;;;;;;;;5.47;46.54;96266.75;5075681;28;1906;-58
2024/01/10 11:11:18;;;;;;;;;;;;;;;5.27;46.65;96255.66;5075842;28;971;-58
2024/01/10 11:13:56;;;;;;;;;;;;;;;5.11;46.96;96254.13;5075902;28;1007;-58
2024/01/10 11:16:33;;;;;;;;;;;;;;;5.19;47.23;96257.94;5075318;28;1036;-58
2024/01/10 11:19:02;;;;;;;;;;;;;;;4.91;48.39;96239.50;5075763;28;1068;-58
2024/01/10 11:21:28;;;;;;;;;;;;;;;4.60;49.99;96239.69;5075427;28;974;-58
2024/01/10 11:23:59;;;;;;;;;;;;;;;4.44;50.26;96233.63;5075484;28;994;-57
2024/01/10 11:26:26;;;;;;;;;;;;;;;3.85;51.72;96231.13;5075497;28;998;-58
2024/01/10 11:28:52;;;;;;;;;;;;;;;3.56;53.38;96220.50;5075056;28;1894;-57
2024/01/10 11:31:27;;;;;;;;;;;;;;;3.42;54.02;96215.22;5075287;28;924;-58
2024/01/10 11:33:53;;;;;;;;;;;;;;;3.90;53.51;96214.00;5075356;28;1033;-58
2024/01/10 11:36:20;;;;;;;;;;;;;;;3.62;53.18;96217.47;5075175;28;989;-57
2024/01/10 11:38:53;;;;;;;;;;;;;;;3.50;53.11;96211.16;5075155;28;1010;-58
2024/01/10 11:41:23;;;;;;;;;;;;;;;3.54;53.95;96201.25;5074932;28;1032;-58
2024/01/10 11:44:08;;;;;;;;;;;;;;;3.83;54.18;96196.84;5074730;28;1223;-58
2024/01/10 11:46:34;;;;;;;;;;;;;;;3.94;51.64;96204.09;5074894;28;1918;-58
2024/01/10 11:49:00;;;;;;;;;;;;;;;3.60;52.93;96200.03;5074910;28;1867;-58
2024/01/10 11:51:26;;;;;;;;;;;;;;;3.70;53.31;96191.44;5074781;28;966;-58
2024/01/10 11:53:53;;;;;;;;;;;;;;;4.13;51.70;96197.66;5074951;28;1151;-58
2024/01/10 11:56:19;;;;;;;;;;;;;;;4.25;51.92;96200.41;5074527;28;970;-58
2024/01/10 11:59:08;;;;;;;;;;;;;;;4.13;51.20;96195.03;5074615;28;1028;-58
2024/01/10 12:01:35;;;;;;;;;;;;;;;3.98;51.93;96194.19;5074110;28;1061;-58
2024/01/10 12:04:02;;;;;;;;;;;;;;;3.97;51.21;96195.97;5074577;28;982;-58
2024/01/10 12:06:28;;;;;;;;;;;;;;;3.79;51.51;96194.47;5074270;28;984;-58
2024/01/10 12:08:54;;;;;;;;;;;;;;;3.61;53.20;96191.16;5074272;28;1898;-58
2024/01/10 12:11:20;;;;;;;;;;;;;;;3.47;52.94;96191.97;5074307;28;1091;-58
2024/01/10 12:13:47;;;;;;;;;;;;;;;3.60;53.72;96195.56;5074300;28;1075;-58
2024/01/10 12:16:14;;;;;;;;;;;;;;;3.66;53.71;96192.56;5074453;28;1057;-58
2024/01/10 12:18:40;;;;;;;;;;;;;;;3.88;54.41;96178.88;5074348;28;1016;-59
2024/01/10 12:21:08;;;;;;;;;;;;;;;3.80;53.23;96180.31;5074497;28;1016;-59
2024/01/10 12:23:35;;;;;;;;;;;;;;;3.73;53.30;96182.47;5074012;28;1003;-59
2024/01/10 12:26:04;;;;;;;;;;;;;;;3.36;53.92;96179.41;5074087;28;926;-59
2024/01/10 12:28:30;;;;;;;;;;;;;;;3.34;53.79;96178.66;5073725;28;1902;-59
2024/01/10 12:30:57;;;;;;;;;;;;;;;3.44;53.82;96176.31;5074021;28;1024;-59
2024/01/10 12:33:26;;;;;;;;;;;;;;;3.51;52.01;96181.13;5074133;28;1015;-59
2024/01/10 12:36:10;;;;;;;;;;;;;;;3.38;52.76;96171.38;5074189;28;976;-58
2024/01/10 12:38:37;;;;;;;;;;;;;;;3.72;54.63;96168.38;5073838;28;1052;-59
2024/01/10 12:41:04;;;;;;;;;;;;;;;3.80;52.06;96162.63;5073894;28;1033;-59
2024/01/10 12:43:31;;;;;;;;;;;;;;;3.77;53.53;96167.25;5073476;28;1138;-59
2024/01/10 12:46:06;;;;;;;;;;;;;;;3.79;53.73;96160.91;5073787;28;1052;-59
2024/01/10 12:48:33;;;;;;;;;;;;;;;3.94;53.69;96151.19;5073844;28;1905;-59
2024/01/10 12:51:00;;;;;;;;;;;;;;;4.03;54.71;96153.25;5073687;28;991;-59
2024/01/10 12:53:28;;;;;;;;;;;;;;;4.15;52.97;96156.06;5073736;28;1163;-59
2024/01/10 12:55:55;;;;;;;;;;;;;;;3.88;52.09;96155.06;5073613;28;1048;-59
2024/01/10 12:58:21;;;;;;;;;;;;;;;3.82;54.41;96151.94;5073368;28;1020;-59
2024/01/10 13:00:47;;;;;;;;;;;;;;;3.96;53.88;96148.44;5073462;28;1009;-59
2024/01/10 13:03:13;;;;;;;;;;;;;;;4.10;54.27;96151.91;5073261;28;1041;-59
2024/01/10 13:05:39;;;;;;;;;;;;;;;3.92;54.44;96156.56;5073390;28;1127;-59
2024/01/10 13:08:05;;;;;;;;;;;;;;;3.72;54.14;96149.03;5073563;28;1984;-59
2024/01/10 13:10:31;;;;;;;;;;;;;;;3.71;55.68;96148.16;5073471;28;1060;-58
2024/01/10 13:12:57;;;;;;;;;;;;;;;3.89;54.17;96151.47;5073494;28;1056;-59
2024/01/10 13:15:23;;;;;;;;;;;;;;;3.81;54.63;96144.94;5073486;28;1036;-59
2024/01/10 13:17:49;;;;;;;;;;;;;;;3.91;56.28;96143.44;5073309;28;1049;-59
2024/01/10 13:20:16;;;;;;;;;;;;;;;4.10;55.13;96140.50;5055715;28;973;-59
2024/01/10 13:22:42;;;;;;;;;;;;;;;3.94;55.14;96143.22;5073168;28;1033;-59
2024/01/10 13:25:08;;;;;;;;;;;;;;;3.75;55.91;96137.41;5073512;28;991;-59
2024/01/10 13:27:34;;;;;;;;;;;;;;;3.64;57.59;96133.63;5055277;28;1997;-59
2024/01/10 13:30:00;;;;;;;;;;;;;;;3.70;57.62;96129.75;5073134;28;1084;-59